createdAt,value
2023-03-20T00:03:41.532Z,6.55
2023-03-20T00:08:45.983Z,6.51
2023-03-20T00:13:47.523Z,6.45
2023-03-20T00:18:49.033Z,6.45
2023-03-20T00:23:50.535Z,6.46
2023-03-20T00:28:52.696Z,6.50
2023-03-20T00:33:57.225Z,6.55
2023-03-20T00:38:58.960Z,6.62
2023-03-20T00:44:03.410Z,6.70
2023-03-20T00:49:05.015Z,6.67
2023-03-20T00:54:17.294Z,6.67
2023-03-20T00:59:22.621Z,6.68
2023-03-20T01:04:25.040Z,6.66
2023-03-20T01:09:26.609Z,6.71
2023-03-20T01:14:28.244Z,6.83
2023-03-20T01:19:29.727Z,6.94
2023-03-20T01:24:31.381Z,7.01
2023-03-20T01:29:33.025Z,7.07
2023-03-20T01:34:34.639Z,7.23
2023-03-20T01:39:37.369Z,7.39
2023-03-20T01:44:39.964Z,7.51
2023-03-20T01:50:22.408Z,7.65
2023-03-20T01:55:26.450Z,7.82
2023-03-20T02:00:34.241Z,7.94
2023-03-20T02:05:38.149Z,8.04
2023-03-20T02:10:40.953Z,8.13
2023-03-20T02:15:56.954Z,8.21
2023-03-20T02:21:22.343Z,8.29
2023-03-20T02:26:46.782Z,8.34
2023-03-20T02:32:09.451Z,8.37
2023-03-20T02:37:23.119Z,8.39
2023-03-20T02:42:40.444Z,8.42
2023-03-20T02:47:52.068Z,8.46
2023-03-20T02:53:27.663Z,8.45
2023-03-20T02:58:39.067Z,8.47
2023-03-20T03:03:48.632Z,8.46
2023-03-20T03:08:56.119Z,8.48
2023-03-20T03:13:58.950Z,8.51
2023-03-20T03:19:07.318Z,8.49
2023-03-20T03:24:40.816Z,8.53
2023-03-20T03:29:49.477Z,8.54
2023-03-20T03:34:52.793Z,8.53
2023-03-20T03:40:43.421Z,8.49
2023-03-20T03:45:53.772Z,8.45
2023-03-20T03:51:00.520Z,8.41
2023-03-20T03:56:08.272Z,8.35
2023-03-20T04:01:12.847Z,8.25
2023-03-20T04:06:17.231Z,8.13
2023-03-20T04:11:21.420Z,8.10
2023-03-20T04:16:26.305Z,8.08
2023-03-20T04:21:29.188Z,8.07
2023-03-20T04:26:30.946Z,8.05
2023-03-20T04:31:33.018Z,8.05
2023-03-20T04:36:45.719Z,8.05
2023-03-20T04:41:49.506Z,8.05
2023-03-20T04:46:51.174Z,8.10
2023-03-20T04:51:53.409Z,8.11
2023-03-20T04:57:07.352Z,8.08
2023-03-20T05:02:09.726Z,8.07
2023-03-20T05:07:12.838Z,7.99
2023-03-20T05:12:24.836Z,7.93
2023-03-20T05:18:01.940Z,7.95
2023-03-20T05:23:23.724Z,7.97
2023-03-20T05:28:40.505Z,7.93
2023-03-20T05:33:55.592Z,7.92
2023-03-20T05:39:11.678Z,7.94
2023-03-20T05:44:36.557Z,7.97
2023-03-20T05:49:54.758Z,7.99
2023-03-20T05:55:02.769Z,8.09
2023-03-20T06:00:23.502Z,8.16
2023-03-20T06:05:45.323Z,8.27
2023-03-20T06:10:50.311Z,8.42
2023-03-20T06:15:52.272Z,8.66
2023-03-20T06:20:57.831Z,8.97
2023-03-20T06:26:02.388Z,9.22
2023-03-20T06:31:06.942Z,9.46
2023-03-20T06:36:09.184Z,9.59
2023-03-20T06:41:13.566Z,9.68
2023-03-20T06:46:21.621Z,9.65
2023-03-20T06:51:23.408Z,9.66
2023-03-20T06:56:27.932Z,9.71
2023-03-20T07:01:29.598Z,9.77
2023-03-20T07:06:37.015Z,9.97
2023-03-20T07:11:38.604Z,10.22
2023-03-20T07:16:40.879Z,10.49
2023-03-20T07:21:43.865Z,10.64
2023-03-20T07:26:47.276Z,10.68
2023-03-20T07:31:49.172Z,10.73
2023-03-20T07:37:00.685Z,10.68
2023-03-20T07:42:03.899Z,10.50
2023-03-20T07:47:24.536Z,10.53
2023-03-20T07:52:26.596Z,10.71
2023-03-20T07:57:28.445Z,11.18
2023-03-20T08:02:31.726Z,11.66
2023-03-20T08:07:33.237Z,11.88
2023-03-20T08:12:34.860Z,11.76
2023-03-20T08:17:36.358Z,11.79
2023-03-20T08:22:37.914Z,11.82
2023-03-20T08:27:39.482Z,12.03
2023-03-20T08:32:43.617Z,12.49
2023-03-20T08:37:45.503Z,12.79
2023-03-20T08:42:46.996Z,12.83
2023-03-20T08:47:51.695Z,12.70
2023-03-20T08:52:53.219Z,12.82
2023-03-20T08:57:57.215Z,13.09
2023-03-20T09:02:58.764Z,13.20
2023-03-20T09:08:00.558Z,13.12
2023-03-20T09:13:09.584Z,13.04
2023-03-20T09:18:17.624Z,12.96
2023-03-20T09:23:19.551Z,13.34
2023-03-20T09:28:21.231Z,13.98
2023-03-20T09:33:22.794Z,13.92
2023-03-20T09:38:24.448Z,13.46
2023-03-20T09:43:52.424Z,12.86
2023-03-20T09:49:13.221Z,12.54
2023-03-20T09:54:24.603Z,12.28
2023-03-20T09:59:27.612Z,12.57
2023-03-20T10:04:29.747Z,12.87
2023-03-20T10:09:32.247Z,12.97
2023-03-20T10:14:42.122Z,12.70
2023-03-20T10:19:50.337Z,12.74
2023-03-20T10:25:16.853Z,13.40
2023-03-20T10:30:37.008Z,13.71
2023-03-20T10:35:51.208Z,14.12
2023-03-20T10:40:55.364Z,14.43
2023-03-20T10:46:13.313Z,14.53
2023-03-20T10:51:19.366Z,14.46
2023-03-20T10:56:44.346Z,14.41
2023-03-20T11:01:46.037Z,14.51
2023-03-20T11:06:56.329Z,14.93
2023-03-20T11:12:00.111Z,15.38
2023-03-20T11:17:04.025Z,15.90
2023-03-20T11:22:26.205Z,15.77
2023-03-20T11:27:30.339Z,15.77
2023-03-20T11:32:39.397Z,15.44
2023-03-20T11:37:46.602Z,15.46
2023-03-20T11:42:57.828Z,15.64
2023-03-20T11:48:03.883Z,16.03
2023-03-20T11:53:26.147Z,15.93
2023-03-20T11:58:29.844Z,15.75
2023-03-20T12:03:42.803Z,15.89
2023-03-20T12:08:50.443Z,16.18
2023-03-20T12:13:54.160Z,16.31
2023-03-20T12:18:59.876Z,16.14
2023-03-20T12:24:26.499Z,15.94
2023-03-20T12:29:50.890Z,16.16
2023-03-20T12:35:16.850Z,16.10
2023-03-20T12:40:27.808Z,16.12
2023-03-20T12:45:44.640Z,16.19
2023-03-20T12:51:00.655Z,16.22
2023-03-20T12:56:21.013Z,16.35
2023-03-20T13:01:53.078Z,16.44
2023-03-20T13:06:59.557Z,16.54
2023-03-20T13:12:38.818Z,16.60
2023-03-20T13:17:50.865Z,16.54
2023-03-20T13:23:09.278Z,16.33
2023-03-20T13:28:45.348Z,16.07
2023-03-20T13:34:21.166Z,15.90
2023-03-20T13:39:28.921Z,15.63
2023-03-20T13:44:33.070Z,15.41
2023-03-20T13:49:42.623Z,15.43
2023-03-20T13:55:22.046Z,15.25
2023-03-20T14:00:52.598Z,15.10
2023-03-20T14:05:54.951Z,15.26
2023-03-20T14:11:32.292Z,15.41
2023-03-20T14:16:34.006Z,15.39
2023-03-20T14:21:36.252Z,15.40
2023-03-20T14:26:41.833Z,15.48
2023-03-20T14:31:45.212Z,15.46
2023-03-20T14:37:05.720Z,15.27
2023-03-20T14:42:19.450Z,15.12
2023-03-20T14:47:48.887Z,15.06
2023-03-20T14:52:55.703Z,15.04
2023-03-20T14:58:02.716Z,15.02
2023-03-20T15:03:10.701Z,14.92
2023-03-20T15:08:24.943Z,14.84
2023-03-20T15:13:27.912Z,14.74
2023-03-20T15:18:30.099Z,14.65
2023-03-20T15:23:31.632Z,14.60
2023-03-20T15:28:37.629Z,14.50
2023-03-20T15:33:42.923Z,14.50
2023-03-20T15:38:46.816Z,14.50
2023-03-20T15:43:48.352Z,14.60
2023-03-20T15:48:50.004Z,14.59
2023-03-20T15:53:51.730Z,14.35
2023-03-20T15:58:56.632Z,13.96
2023-03-20T16:03:59.913Z,13.77
2023-03-20T16:09:13.796Z,13.61
2023-03-20T16:14:25.646Z,13.49
2023-03-20T16:19:29.107Z,13.48
2023-03-20T16:24:36.232Z,13.42
2023-03-20T16:29:43.861Z,13.35
2023-03-20T16:34:51.343Z,13.19
2023-03-20T16:40:05.914Z,12.91
2023-03-20T16:45:19.799Z,12.70
2023-03-20T16:50:23.220Z,12.37
2023-03-20T16:55:29.504Z,12.23
2023-03-20T17:00:41.741Z,12.10
2023-03-20T17:05:49.435Z,11.95
2023-03-20T17:10:57.292Z,11.73
2023-03-20T17:15:59.615Z,11.45
2023-03-20T17:21:01.203Z,11.22
2023-03-20T17:26:02.773Z,11.14
2023-03-20T17:31:05.454Z,11.13
2023-03-20T17:36:39.493Z,11.03
2023-03-20T17:41:40.975Z,10.98
2023-03-20T17:46:56.612Z,10.87
2023-03-20T17:51:59.077Z,10.78
2023-03-20T17:57:01.686Z,10.71
2023-03-20T18:02:03.382Z,10.67
2023-03-20T18:07:04.970Z,10.63
2023-03-20T18:12:09.837Z,10.64
2023-03-20T18:17:13.187Z,10.65
2023-03-20T18:22:14.747Z,10.63
2023-03-20T18:27:16.691Z,10.60
2023-03-20T18:32:18.197Z,10.54
2023-03-20T18:37:22.078Z,10.43
2023-03-20T18:42:23.709Z,10.29
2023-03-20T18:47:25.382Z,10.24
2023-03-20T18:52:27.115Z,10.18
2023-03-20T18:57:28.624Z,10.08
2023-03-20T19:02:30.152Z,9.91
2023-03-20T19:07:31.670Z,9.80
2023-03-20T19:12:33.230Z,9.80
2023-03-20T19:17:34.766Z,9.80
2023-03-20T19:22:36.306Z,9.84
2023-03-20T19:27:37.919Z,9.82
2023-03-20T19:32:42.629Z,9.76
2023-03-20T19:37:44.191Z,9.68
2023-03-20T19:43:01.014Z,9.65
2023-03-20T19:48:12.341Z,9.63
2023-03-20T19:53:16.611Z,9.70
2023-03-20T19:58:18.135Z,9.75
2023-03-20T20:03:22.731Z,9.75
2023-03-20T20:08:41.352Z,9.69
2023-03-20T20:14:07.170Z,9.67
2023-03-20T20:19:08.267Z,9.71
2023-03-20T20:24:10.447Z,9.75
2023-03-20T20:29:11.980Z,9.77
2023-03-20T20:39:35.081Z,9.68
2023-03-20T20:44:36.921Z,9.56
2023-03-20T20:49:38.649Z,9.51
2023-03-20T20:54:43.634Z,9.50
2023-03-20T20:59:45.165Z,9.37
2023-03-20T21:04:46.708Z,9.17
2023-03-20T21:09:48.268Z,9.07
2023-03-20T21:14:50.887Z,8.97
2023-03-20T21:19:53.453Z,8.93
2023-03-20T21:25:11.031Z,8.89
2023-03-20T21:30:15.494Z,8.88
2023-03-20T21:35:17.147Z,8.83
2023-03-20T21:40:18.742Z,8.80
2023-03-20T21:46:46.694Z,8.83
2023-03-20T21:51:04.142Z,8.87
2023-03-20T22:07:28.599Z,8.81
2023-03-20T22:18:02.951Z,8.62
2023-03-20T22:28:56.681Z,8.63
2023-03-20T22:34:30.665Z,8.70
2023-03-20T22:39:34.039Z,8.69
2023-03-20T22:45:19.656Z,8.63
2023-03-20T22:49:39.860Z,8.47
2023-03-20T22:54:41.455Z,8.43
2023-03-20T22:59:42.985Z,8.43
2023-03-20T23:04:44.620Z,8.43
2023-03-20T23:09:47.753Z,8.41
2023-03-20T23:14:49.421Z,8.38
2023-03-20T23:19:59.242Z,8.38
2023-03-20T23:25:18.240Z,8.35
2023-03-20T23:30:30.979Z,8.36
2023-03-20T23:35:36.003Z,8.33
2023-03-20T23:40:38.067Z,8.30
2023-03-20T23:45:40.100Z,8.32
2023-03-20T23:50:52.203Z,8.28
2023-03-20T23:55:56.434Z,8.22
